Northport, New York
Current Conditions -  °F | °C
As of 10:12 PM on Monday 26 Jan 2015 (Local Time) from KFRG Reporting Station
Light Snow Light Snow  
Wind Chill: 10°   Ceiling: 1100
Heat Index: 26°   Visibility: 0.75mi
Dew Point: 22°   Wind: 26mph
Humidity: 84%   Direction: 20°NNE
Pressure: 29.69"   Gusts: 37mph
Location:  40.9°N, 73.34°W
Report Text: KFRG 270312Z AUTO 02023G32KT 3/4SM -SN BR VV011 M03/M06 A2969 RMK AO2 PK WND 02032/0303 P0000 T10331056
Loading
Personal Weather Stations






























Interactive Weather Map New forecast layout! Learn more

10-Day Weather Forecast

Advertisements
Track Severe Weather on mobile